PWSweather.com
Personal Weather Stations
Station Observations
WODONGA
Wodonga, WodongaAU 3690

WodongaWodongaAU 3690

Lat: -36.121, Lon: 146.87

Elevation: 541

Station Type: Weather Station

http://www.wodongaweather.net

Latest ConditionsUpdated 10:55:01 PM GMT+10:10 Thursday, Jul 24, 2014
Currently Today's Max Today's Min Today's Average
Temperature 46.9°F8.3°C 50.5°F10.3°C 37.2°F2.9°C 44.5°F6.9°C
Dew Point 43.3°F6.3°C 46.2°F7.9°C 34.5°F1.4°C 40.8°F4.9°C
Winds 1.1 mph S1.8 kmh S 7.3 mph SE11.7 kmh SE - 3.2 mph 5.1 kmh
Wind Gusts 3.1 mph5.0 kmh 10.7 mph17.2 kmh - -
Humidity 87% 91% 83% 87%
Pressure 30.03 in1016.9 mb 30.13 in1020.3 mb 29.98 in1015.2 mb -
Precipitation - 0.02 in0.5 mm - -
Hour Temp Dew Point Humidity Winds Wind Gusts Pressure Precip Precip Rate Daily Precip Total
10:55 PM 46.9°F8.3°C 43.3°F6.3°C 87% 1.1 mph S1.8 kmh S 3.1 mph5.0 kmh 30.03 in1016.9 mb 0.00 in0.0 mm 0.00 in/hr0.0 mm/hr 0.02 in0.5 mm
10:50 PM 47.1°F8.4°C 43.2°F6.2°C 86% 2.3 mph SSE3.7 kmh SSE 4.5 mph7.2 kmh 30.02 in1016.6 mb 0.00 in0.0 mm 0.00 in/hr0.0 mm/hr 0.02 in0.5 mm
10:45 PM 47.3°F8.5°C 43.3°F6.3°C 86% 3.0 mph SE4.8 kmh SE 4.5 mph7.2 kmh 30.02 in1016.6 mb 0.00 in0.0 mm 0.00 in/hr0.0 mm/hr 0.02 in0.5 mm
10:40 PM 47.3°F8.5°C 43.3°F6.3°C 86% 3.4 mph SE5.5 kmh SE 4.5 mph7.2 kmh 30.02 in1016.6 mb 0.00 in0.0 mm 0.00 in/hr0.0 mm/hr 0.02 in0.5 mm
10:35 PM 47.3°F8.5°C 43.3°F6.3°C 86% 3.6 mph SE5.8 kmh SE 4.5 mph7.2 kmh 30.02 in1016.6 mb 0.00 in0.0 mm 0.00 in/hr0.0 mm/hr 0.02 in0.5 mm
10:30 PM 47.5°F8.6°C 43.5°F6.4°C 86% 3.5 mph SSE5.6 kmh SSE 4.5 mph7.2 kmh 30.02 in1016.6 mb 0.00 in0.0 mm 0.00 in/hr0.0 mm/hr 0.02 in0.5 mm
10:25 PM 47.5°F8.6°C 43.5°F6.4°C 86% 3.6 mph SE5.8 kmh SE 4.5 mph7.2 kmh 30.03 in1016.9 mb 0.00 in0.0 mm 0.00 in/hr0.0 mm/hr 0.02 in0.5 mm
10:20 PM 47.7°F8.7°C 43.4°F6.3°C 85% 3.2 mph SE5.1 kmh SE 4.5 mph7.2 kmh 30.02 in1016.6 mb 0.00 in0.0 mm 0.00 in/hr0.0 mm/hr 0.02 in0.5 mm
10:15 PM 47.7°F8.7°C 43.4°F6.3°C 85% 2.6 mph S4.2 kmh S 3.8 mph6.1 kmh 30.03 in1016.9 mb 0.00 in0.0 mm 0.00 in/hr0.0 mm/hr 0.02 in0.5 mm
10:10 PM 47.8°F8.8°C 43.6°F6.4°C 85% 2.9 mph S4.7 kmh S 3.8 mph6.1 kmh 30.03 in1016.9 mb 0.00 in0.0 mm 0.00 in/hr0.0 mm/hr 0.02 in0.5 mm
10:05 PM 47.8°F8.8°C 43.6°F6.4°C 85% 3.4 mph SE5.5 kmh SE 4.5 mph7.2 kmh 30.04 in1017.3 mb 0.00 in0.0 mm 0.00 in/hr0.0 mm/hr 0.02 in0.5 mm
10:00 PM 47.8°F8.8°C 43.6°F6.4°C 85% 3.5 mph SE5.6 kmh SE 4.5 mph7.2 kmh 30.04 in1017.3 mb 0.00 in0.0 mm 0.00 in/hr0.0 mm/hr 0.02 in0.5 mm
09:55 PM 47.8°F8.8°C 43.6°F6.4°C 85% 3.0 mph SSE4.8 kmh SSE 4.5 mph7.2 kmh 30.04 in1017.3 mb 0.00 in0.0 mm 0.00 in/hr0.0 mm/hr 0.02 in0.5 mm
09:50 PM 47.8°F8.8°C 43.6°F6.4°C 85% 3.2 mph SSE5.1 kmh SSE 4.5 mph7.2 kmh 30.04 in1017.3 mb 0.00 in0.0 mm 0.00 in/hr0.0 mm/hr 0.02 in0.5 mm
09:45 PM 47.8°F8.8°C 43.6°F6.4°C 85% 3.3 mph SE5.3 kmh SE 4.5 mph7.2 kmh 30.03 in1016.9 mb 0.00 in0.0 mm 0.00 in/hr0.0 mm/hr 0.02 in0.5 mm
09:40 PM 47.8°F8.8°C 43.6°F6.4°C 85% 3.1 mph SE5.0 kmh SE 3.8 mph6.1 kmh 30.03 in1016.9 mb 0.00 in0.0 mm 0.00 in/hr0.0 mm/hr 0.02 in0.5 mm
09:35 PM 47.8°F8.8°C 43.6°F6.4°C 85% 3.0 mph SE4.8 kmh SE 4.5 mph7.2 kmh 30.03 in1016.9 mb 0.00 in0.0 mm 0.00 in/hr0.0 mm/hr 0.02 in0.5 mm
09:30 PM 47.8°F8.8°C 43.6°F6.4°C 85% 3.0 mph SE4.8 kmh SE 4.5 mph7.2 kmh 30.03 in1016.9 mb 0.00 in0.0 mm 0.00 in/hr0.0 mm/hr 0.02 in0.5 mm
09:25 PM 47.8°F8.8°C 43.6°F6.4°C 85% 2.5 mph SE4.0 kmh SE 4.5 mph7.2 kmh 30.03 in1016.9 mb 0.00 in0.0 mm 0.00 in/hr0.0 mm/hr 0.02 in0.5 mm
09:20 PM 48.0°F8.9°C 43.4°F6.3°C 84% 2.5 mph SE4.0 kmh SE 3.8 mph6.1 kmh 30.04 in1017.3 mb 0.00 in0.0 mm 0.00 in/hr0.0 mm/hr 0.02 in0.5 mm
09:15 PM 48.0°F8.9°C 43.4°F6.3°C 84% 2.9 mph SE4.7 kmh SE 3.8 mph6.1 kmh 30.03 in1016.9 mb 0.00 in0.0 mm 0.00 in/hr0.0 mm/hr 0.02 in0.5 mm
09:10 PM 48.2°F9.0°C 43.6°F6.4°C 84% 3.4 mph SE5.5 kmh SE 6.0 mph9.7 kmh 30.03 in1016.9 mb 0.00 in0.0 mm 0.00 in/hr0.0 mm/hr 0.02 in0.5 mm
09:05 PM 48.4°F9.1°C 43.8°F6.6°C 84% 4.3 mph ESE6.9 kmh ESE 6.0 mph9.7 kmh 30.03 in1016.9 mb 0.00 in0.0 mm 0.00 in/hr0.0 mm/hr 0.02 in0.5 mm
09:00 PM 48.2°F9.0°C 43.6°F6.4°C 84% 4.7 mph SE7.6 kmh SE 6.0 mph9.7 kmh 30.03 in1016.9 mb 0.00 in0.0 mm 0.00 in/hr0.0 mm/hr 0.02 in0.5 mm
08:55 PM 48.2°F9.0°C 43.6°F6.4°C 84% 4.4 mph ESE7.1 kmh ESE 6.0 mph9.7 kmh 30.03 in1016.9 mb 0.00 in0.0 mm 0.00 in/hr0.0 mm/hr 0.02 in0.5 mm
08:50 PM 48.2°F9.0°C 43.6°F6.4°C 84% 3.6 mph SE5.8 kmh SE 6.0 mph9.7 kmh 30.03 in1016.9 mb 0.00 in0.0 mm 0.00 in/hr0.0 mm/hr 0.02 in0.5 mm
08:45 PM 48.2°F9.0°C 43.6°F6.4°C 84% 2.5 mph SE4.0 kmh SE 5.4 mph8.7 kmh 30.03 in1016.9 mb 0.00 in0.0 mm 0.00 in/hr0.0 mm/hr 0.02 in0.5 mm
08:40 PM 48.2°F9.0°C 43.9°F6.6°C 85% 2.1 mph ESE3.4 kmh ESE 3.8 mph6.1 kmh 30.03 in1016.9 mb 0.00 in0.0 mm 0.00 in/hr0.0 mm/hr 0.02 in0.5 mm
08:35 PM 48.4°F9.1°C 44.1°F6.7°C 85% 2.8 mph ESE4.5 kmh ESE 3.8 mph6.1 kmh 30.03 in1016.9 mb 0.00 in0.0 mm 0.00 in/hr0.0 mm/hr 0.02 in0.5 mm
08:30 PM 48.2°F9.0°C 43.9°F6.6°C 85% 2.9 mph ESE4.7 kmh ESE 3.8 mph6.1 kmh 30.03 in1016.9 mb 0.00 in0.0 mm 0.00 in/hr0.0 mm/hr 0.02 in0.5 mm
08:25 PM 48.4°F9.1°C 44.1°F6.7°C 85% 2.8 mph E4.5 kmh E 3.8 mph6.1 kmh 30.03 in1016.9 mb 0.00 in0.0 mm 0.00 in/hr0.0 mm/hr 0.02 in0.5 mm
08:20 PM 48.4°F9.1°C 44.1°F6.7°C 85% 3.2 mph ESE5.1 kmh ESE 4.5 mph7.2 kmh 30.03 in1016.9 mb 0.00 in0.0 mm 0.00 in/hr0.0 mm/hr 0.02 in0.5 mm
08:15 PM 48.4°F9.1°C 44.1°F6.7°C 85% 3.7 mph SE6.0 kmh SE 6.9 mph11.1 kmh 30.02 in1016.6 mb 0.00 in0.0 mm 0.00 in/hr0.0 mm/hr 0.02 in0.5 mm
08:10 PM 48.4°F9.1°C 44.1°F6.7°C 85% 3.3 mph SE5.3 kmh SE 6.9 mph11.1 kmh 30.03 in1016.9 mb 0.00 in0.0 mm 0.00 in/hr0.0 mm/hr 0.02 in0.5 mm
08:05 PM 48.4°F9.1°C 44.1°F6.7°C 85% 2.7 mph SE4.3 kmh SE 4.5 mph7.2 kmh 30.02 in1016.6 mb 0.00 in0.0 mm 0.00 in/hr0.0 mm/hr 0.02 in0.5 mm
08:00 PM 48.4°F9.1°C 44.1°F6.7°C 85% 3.3 mph SE5.3 kmh SE 4.5 mph7.2 kmh 30.02 in1016.6 mb 0.00 in0.0 mm 0.00 in/hr0.0 mm/hr 0.02 in0.5 mm
07:55 PM 48.4°F9.1°C 44.1°F6.7°C 85% 3.7 mph SE6.0 kmh SE 4.5 mph7.2 kmh 30.02 in1016.6 mb 0.00 in0.0 mm 0.00 in/hr0.0 mm/hr 0.02 in0.5 mm
07:50 PM 48.4°F9.1°C 44.1°F6.7°C 85% 3.8 mph SE6.1 kmh SE 4.5 mph7.2 kmh 30.03 in1016.9 mb 0.00 in0.0 mm 0.00 in/hr0.0 mm/hr 0.02 in0.5 mm
07:45 PM 48.4°F9.1°C 44.1°F6.7°C 85% 4.4 mph E7.1 kmh E 6.9 mph11.1 kmh 30.03 in1016.9 mb 0.00 in0.0 mm 0.00 in/hr0.0 mm/hr 0.02 in0.5 mm
07:40 PM 48.2°F9.0°C 43.9°F6.6°C 85% 4.1 mph E6.6 kmh E 6.9 mph11.1 kmh 30.02 in1016.6 mb 0.00 in0.0 mm 0.00 in/hr0.0 mm/hr 0.02 in0.5 mm
07:35 PM 48.2°F9.0°C 44.2°F6.8°C 86% 3.2 mph E5.1 kmh E 6.9 mph11.1 kmh 30.02 in1016.6 mb 0.00 in0.0 mm 0.00 in/hr0.0 mm/hr 0.02 in0.5 mm
07:30 PM 48.2°F9.0°C 44.2°F6.8°C 86% 2.8 mph E4.5 kmh E 6.9 mph11.1 kmh 30.02 in1016.6 mb 0.00 in0.0 mm 0.00 in/hr0.0 mm/hr 0.02 in0.5 mm
07:25 PM 48.2°F9.0°C 44.2°F6.8°C 86% 2.9 mph ESE4.7 kmh ESE 4.5 mph7.2 kmh 30.02 in1016.6 mb 0.00 in0.0 mm 0.00 in/hr0.0 mm/hr 0.02 in0.5 mm
07:20 PM 48.2°F9.0°C 44.2°F6.8°C 86% 3.5 mph ESE5.6 kmh ESE 4.5 mph7.2 kmh 30.02 in1016.6 mb 0.00 in0.0 mm 0.00 in/hr0.0 mm/hr 0.02 in0.5 mm
07:15 PM 48.2°F9.0°C 44.2°F6.8°C 86% 3.4 mph ESE5.5 kmh ESE 4.5 mph7.2 kmh 30.02 in1016.6 mb 0.00 in0.0 mm 0.00 in/hr0.0 mm/hr 0.02 in0.5 mm
07:10 PM 48.2°F9.0°C 44.2°F6.8°C 86% 2.8 mph ESE4.5 kmh ESE 4.5 mph7.2 kmh 30.02 in1016.6 mb 0.00 in0.0 mm 0.00 in/hr0.0 mm/hr 0.02 in0.5 mm
07:05 PM 48.4°F9.1°C 44.4°F6.9°C 86% 1.8 mph SE2.9 kmh SE 3.1 mph5.0 kmh 30.01 in1016.3 mb 0.00 in0.0 mm 0.00 in/hr0.0 mm/hr 0.02 in0.5 mm
07:00 PM 48.2°F9.0°C 43.9°F6.6°C 85% 1.6 mph S2.6 kmh S 3.8 mph6.1 kmh 30.02 in1016.6 mb 0.00 in0.0 mm 0.00 in/hr0.0 mm/hr 0.02 in0.5 mm
06:55 PM 48.4°F9.1°C 44.1°F6.7°C 85% 1.3 mph S2.1 kmh S 3.8 mph6.1 kmh 30.01 in1016.3 mb 0.00 in0.0 mm 0.00 in/hr0.0 mm/hr 0.02 in0.5 mm
06:50 PM 48.6°F9.2°C 44.3°F6.8°C 85% 0.9 mph ESE1.4 kmh ESE 2.2 mph3.5 kmh 30.01 in1016.3 mb 0.00 in0.0 mm 0.00 in/hr0.0 mm/hr 0.02 in0.5 mm
06:45 PM 48.4°F9.1°C 44.1°F6.7°C 85% 2.0 mph NE3.2 kmh NE 4.5 mph7.2 kmh 30.01 in1016.3 mb 0.00 in0.0 mm 0.00 in/hr0.0 mm/hr 0.02 in0.5 mm
06:40 PM 48.2°F9.0°C 43.9°F6.6°C 85% 3.5 mph ENE5.6 kmh ENE 6.0 mph9.7 kmh 30.01 in1016.3 mb 0.00 in0.0 mm 0.00 in/hr0.0 mm/hr 0.02 in0.5 mm
06:35 PM 48.4°F9.1°C 44.1°F6.7°C 85% 4.2 mph SE6.8 kmh SE 6.9 mph11.1 kmh 30.00 in1015.9 mb 0.00 in0.0 mm 0.00 in/hr0.0 mm/hr 0.02 in0.5 mm
06:30 PM 48.4°F9.1°C 44.1°F6.7°C 85% 4.3 mph SE6.9 kmh SE 6.9 mph11.1 kmh 30.00 in1015.9 mb 0.00 in0.0 mm 0.00 in/hr0.0 mm/hr 0.02 in0.5 mm
06:25 PM 48.4°F9.1°C 44.1°F6.7°C 85% 4.6 mph SE7.4 kmh SE 7.6 mph12.2 kmh 30.00 in1015.9 mb 0.00 in0.0 mm 0.00 in/hr0.0 mm/hr 0.02 in0.5 mm
06:20 PM 48.4°F9.1°C 43.8°F6.6°C 84% 5.7 mph SE9.2 kmh SE 7.6 mph12.2 kmh 30.00 in1015.9 mb 0.00 in0.0 mm 0.00 in/hr0.0 mm/hr 0.02 in0.5 mm
06:15 PM 48.4°F9.1°C 43.8°F6.6°C 84% 6.5 mph SE10.5 kmh SE 7.6 mph12.2 kmh 30.00 in1015.9 mb 0.00 in0.0 mm 0.00 in/hr0.0 mm/hr 0.02 in0.5 mm
06:10 PM 48.4°F9.1°C 43.8°F6.6°C 84% 6.2 mph SE10.0 kmh SE 7.6 mph12.2 kmh 29.99 in1015.6 mb 0.00 in0.0 mm 0.00 in/hr0.0 mm/hr 0.02 in0.5 mm
06:05 PM 48.6°F9.2°C 44.0°F6.7°C 84% 6.4 mph SE10.3 kmh SE 8.3 mph13.4 kmh 29.99 in1015.6 mb 0.00 in0.0 mm 0.00 in/hr0.0 mm/hr 0.02 in0.5 mm
06:00 PM 48.6°F9.2°C 44.0°F6.7°C 84% 7.2 mph SE11.6 kmh SE 8.3 mph13.4 kmh 29.98 in1015.2 mb 0.00 in0.0 mm 0.00 in/hr0.0 mm/hr 0.02 in0.5 mm
05:55 PM 48.7°F9.3°C 44.1°F6.7°C 84% 7.3 mph SE11.7 kmh SE 9.2 mph14.8 kmh 29.99 in1015.6 mb 0.00 in0.0 mm 0.00 in/hr0.0 mm/hr 0.02 in0.5 mm
05:50 PM 48.7°F9.3°C 44.1°F6.7°C 84% 6.8 mph SE10.9 kmh SE 9.2 mph14.8 kmh 29.99 in1015.6 mb 0.00 in0.0 mm 0.00 in/hr0.0 mm/hr 0.02 in0.5 mm
05:45 PM 48.7°F9.3°C 44.1°F6.7°C 84% 6.0 mph SE9.7 kmh SE 8.3 mph13.4 kmh 29.99 in1015.6 mb 0.00 in0.0 mm 0.00 in/hr0.0 mm/hr 0.02 in0.5 mm
05:40 PM 48.9°F9.4°C 44.3°F6.8°C 84% 6.0 mph SE9.7 kmh SE 7.6 mph12.2 kmh 29.99 in1015.6 mb 0.00 in0.0 mm 0.00 in/hr0.0 mm/hr 0.02 in0.5 mm
05:35 PM 48.9°F9.4°C 44.3°F6.8°C 84% 6.6 mph SE10.6 kmh SE 8.3 mph13.4 kmh 29.99 in1015.6 mb 0.00 in0.0 mm 0.00 in/hr0.0 mm/hr 0.02 in0.5 mm
05:30 PM 48.9°F9.4°C 44.0°F6.7°C 83% 6.5 mph SE10.5 kmh SE 8.3 mph13.4 kmh 29.99 in1015.6 mb 0.00 in0.0 mm 0.00 in/hr0.0 mm/hr 0.02 in0.5 mm
05:25 PM 49.1°F9.5°C 44.2°F6.8°C 83% 6.0 mph SE9.7 kmh SE 8.3 mph13.4 kmh 29.99 in1015.6 mb 0.00 in0.0 mm 0.00 in/hr0.0 mm/hr 0.02 in0.5 mm
05:20 PM 49.3°F9.6°C 44.3°F6.8°C 83% 7.1 mph SE11.4 kmh SE 10.7 mph17.2 kmh 30.00 in1015.9 mb 0.00 in0.0 mm 0.00 in/hr0.0 mm/hr 0.02 in0.5 mm
05:15 PM 49.3°F9.6°C 44.3°F6.8°C 83% 7.2 mph SE11.6 kmh SE 10.7 mph17.2 kmh 29.99 in1015.6 mb 0.00 in0.0 mm 0.00 in/hr0.0 mm/hr 0.02 in0.5 mm
05:10 PM 49.3°F9.6°C 44.7°F7.1°C 84% 6.2 mph SE10.0 kmh SE 7.6 mph12.2 kmh 29.99 in1015.6 mb 0.00 in0.0 mm 0.00 in/hr0.0 mm/hr 0.02 in0.5 mm
05:05 PM 49.3°F9.6°C 44.7°F7.1°C 84% 6.0 mph SE9.7 kmh SE 7.6 mph12.2 kmh 29.99 in1015.6 mb 0.00 in0.0 mm 0.00 in/hr0.0 mm/hr 0.02 in0.5 mm
05:00 PM 49.3°F9.6°C 44.7°F7.1°C 84% 6.2 mph ESE10.0 kmh ESE 8.3 mph13.4 kmh 29.99 in1015.6 mb 0.00 in0.0 mm 0.00 in/hr0.0 mm/hr 0.02 in0.5 mm
04:55 PM 49.3°F9.6°C 44.7°F7.1°C 84% 6.5 mph SE10.5 kmh SE 8.3 mph13.4 kmh 30.00 in1015.9 mb 0.00 in0.0 mm 0.00 in/hr0.0 mm/hr 0.02 in0.5 mm
04:50 PM 49.3°F9.6°C 44.7°F7.1°C 84% 6.8 mph SE10.9 kmh SE 8.3 mph13.4 kmh 30.00 in1015.9 mb 0.00 in0.0 mm 0.00 in/hr0.0 mm/hr 0.02 in0.5 mm
04:45 PM 49.3°F9.6°C 44.7°F7.1°C 84% 7.1 mph SE11.4 kmh SE 9.8 mph15.8 kmh 29.99 in1015.6 mb 0.00 in0.0 mm 0.00 in/hr0.0 mm/hr 0.02 in0.5 mm
04:40 PM 49.5°F9.7°C 44.8°F7.1°C 84% 6.5 mph SE10.5 kmh SE 9.8 mph15.8 kmh 29.99 in1015.6 mb 0.00 in0.0 mm 0.00 in/hr0.0 mm/hr 0.02 in0.5 mm
04:35 PM 49.5°F9.7°C 44.8°F7.1°C 84% 6.4 mph SE10.3 kmh SE 9.2 mph14.8 kmh 30.00 in1015.9 mb 0.00 in0.0 mm 0.00 in/hr0.0 mm/hr 0.02 in0.5 mm
04:30 PM 49.5°F9.7°C 44.8°F7.1°C 84% 6.3 mph SE10.1 kmh SE 9.2 mph14.8 kmh 30.00 in1015.9 mb 0.00 in0.0 mm 0.00 in/hr0.0 mm/hr 0.02 in0.5 mm
04:25 PM 49.6°F9.8°C 45.3°F7.4°C 85% 5.9 mph SE9.5 kmh SE 9.2 mph14.8 kmh 30.00 in1015.9 mb 0.00 in0.0 mm 0.00 in/hr0.0 mm/hr 0.02 in0.5 mm
04:20 PM 49.8°F9.9°C 45.5°F7.5°C 85% 5.6 mph SE9.0 kmh SE 6.9 mph11.1 kmh 30.00 in1015.9 mb 0.00 in0.0 mm 0.00 in/hr0.0 mm/hr 0.02 in0.5 mm
04:15 PM 49.6°F9.8°C 45.3°F7.4°C 85% 5.5 mph SE8.9 kmh SE 8.3 mph13.4 kmh 30.00 in1015.9 mb 0.00 in0.0 mm 0.00 in/hr0.0 mm/hr 0.02 in0.5 mm
04:10 PM 49.8°F9.9°C 45.5°F7.5°C 85% 6.0 mph SE9.7 kmh SE 8.3 mph13.4 kmh 30.00 in1015.9 mb 0.00 in0.0 mm 0.00 in/hr0.0 mm/hr 0.02 in0.5 mm
04:05 PM 49.6°F9.8°C 45.3°F7.4°C 85% 5.9 mph SE9.5 kmh SE 8.3 mph13.4 kmh 30.00 in1015.9 mb 0.00 in0.0 mm 0.00 in/hr0.0 mm/hr 0.02 in0.5 mm
04:00 PM 49.6°F9.8°C 45.3°F7.4°C 85% 6.0 mph SE9.7 kmh SE 7.6 mph12.2 kmh 30.00 in1015.9 mb 0.00 in0.0 mm 0.00 in/hr0.0 mm/hr 0.02 in0.5 mm
03:55 PM 49.5°F9.7°C 45.1°F7.3°C 85% 5.9 mph SE9.5 kmh SE 7.6 mph12.2 kmh 30.00 in1015.9 mb 0.00 in0.0 mm 0.00 in/hr0.0 mm/hr 0.02 in0.5 mm
03:50 PM 49.6°F9.8°C 45.3°F7.4°C 85% 5.6 mph SE9.0 kmh SE 8.3 mph13.4 kmh 30.00 in1015.9 mb 0.00 in0.0 mm 0.00 in/hr0.0 mm/hr 0.02 in0.5 mm
03:45 PM 49.8°F9.9°C 45.2°F7.3°C 84% 5.5 mph SE8.9 kmh SE 8.3 mph13.4 kmh 30.00 in1015.9 mb 0.00 in0.0 mm 0.00 in/hr0.0 mm/hr 0.02 in0.5 mm
03:40 PM 50.2°F10.1°C 45.5°F7.5°C 84% 5.0 mph SE8.0 kmh SE 7.6 mph12.2 kmh 30.00 in1015.9 mb 0.00 in0.0 mm 0.00 in/hr0.0 mm/hr 0.02 in0.5 mm
03:35 PM 50.5°F10.3°C 46.2°F7.9°C 85% 5.0 mph SE8.0 kmh SE 6.9 mph11.1 kmh 30.00 in1015.9 mb 0.00 in0.0 mm 0.00 in/hr0.0 mm/hr 0.02 in0.5 mm
03:30 PM 50.5°F10.3°C 46.2°F7.9°C 85% 5.6 mph SE9.0 kmh SE 7.6 mph12.2 kmh 30.00 in1015.9 mb 0.00 in0.0 mm 0.00 in/hr0.0 mm/hr 0.02 in0.5 mm
03:25 PM 49.8°F9.9°C 45.5°F7.5°C 85% 6.1 mph SE9.8 kmh SE 8.3 mph13.4 kmh 30.00 in1015.9 mb 0.00 in0.0 mm 0.00 in/hr0.0 mm/hr 0.02 in0.5 mm
03:20 PM 49.3°F9.6°C 45.0°F7.2°C 85% 6.3 mph SE10.1 kmh SE 8.3 mph13.4 kmh 30.00 in1015.9 mb 0.00 in0.0 mm 0.00 in/hr0.0 mm/hr 0.02 in0.5 mm
03:15 PM 49.3°F9.6°C 44.7°F7.1°C 84% 6.3 mph ESE10.1 kmh ESE 8.3 mph13.4 kmh 30.00 in1015.9 mb 0.00 in0.0 mm 0.00 in/hr0.0 mm/hr 0.02 in0.5 mm
03:10 PM 49.3°F9.6°C 44.7°F7.1°C 84% 6.6 mph SE10.6 kmh SE 8.3 mph13.4 kmh 30.00 in1015.9 mb 0.00 in0.0 mm 0.00 in/hr0.0 mm/hr 0.02 in0.5 mm
03:05 PM 49.5°F9.7°C 44.8°F7.1°C 84% 6.3 mph SE10.1 kmh SE 7.6 mph12.2 kmh 30.01 in1016.3 mb 0.00 in0.0 mm 0.00 in/hr0.0 mm/hr 0.02 in0.5 mm
03:00 PM 49.6°F9.8°C 45.0°F7.2°C 84% 6.2 mph SE10.0 kmh SE 7.6 mph12.2 kmh 30.01 in1016.3 mb 0.00 in0.0 mm 0.00 in/hr0.0 mm/hr 0.02 in0.5 mm
02:55 PM 50.0°F10.0°C 45.0°F7.2°C 83% 6.7 mph SE10.8 kmh SE 8.3 mph13.4 kmh 30.00 in1015.9 mb 0.00 in0.0 mm 0.00 in/hr0.0 mm/hr 0.02 in0.5 mm
02:50 PM 50.2°F10.1°C 45.2°F7.3°C 83% 6.5 mph SE10.5 kmh SE 8.3 mph13.4 kmh 30.00 in1015.9 mb 0.00 in0.0 mm 0.00 in/hr0.0 mm/hr 0.02 in0.5 mm
02:45 PM 50.2°F10.1°C 45.5°F7.5°C 84% 6.3 mph SE10.1 kmh SE 7.6 mph12.2 kmh 30.00 in1015.9 mb 0.00 in0.0 mm 0.00 in/hr0.0 mm/hr 0.02 in0.5 mm
02:40 PM 50.2°F10.1°C 45.5°F7.5°C 84% 6.3 mph SE10.1 kmh SE 7.6 mph12.2 kmh 30.00 in1015.9 mb 0.00 in0.0 mm 0.00 in/hr0.0 mm/hr 0.02 in0.5 mm
02:35 PM 50.2°F10.1°C 45.5°F7.5°C 84% 6.0 mph SE9.7 kmh SE 8.3 mph13.4 kmh 30.00 in1015.9 mb 0.00 in0.0 mm 0.00 in/hr0.0 mm/hr 0.02 in0.5 mm
02:30 PM 50.0°F10.0°C 45.0°F7.2°C 83% 6.4 mph SE10.3 kmh SE 8.3 mph13.4 kmh 30.01 in1016.3 mb 0.00 in0.0 mm 0.00 in/hr0.0 mm/hr 0.02 in0.5 mm
02:25 PM 50.2°F10.1°C 45.2°F7.3°C 83% 6.8 mph SE10.9 kmh SE 8.3 mph13.4 kmh 30.00 in1015.9 mb 0.00 in0.0 mm 0.00 in/hr0.0 mm/hr 0.02 in0.5 mm
02:20 PM 50.2°F10.1°C 45.2°F7.3°C 83% 6.8 mph ESE10.9 kmh ESE 8.3 mph13.4 kmh 30.01 in1016.3 mb 0.01 in0.3 mm 0.00 in/hr0.0 mm/hr 0.02 in0.5 mm
02:15 PM 50.4°F10.2°C 45.4°F7.4°C 83% 6.6 mph ESE10.6 kmh ESE 8.3 mph13.4 kmh 30.01 in1016.3 mb 0.01 in0.3 mm 0.00 in/hr0.0 mm/hr 0.02 in0.5 mm
02:10 PM 50.5°F10.3°C 45.6°F7.6°C 83% 6.9 mph ESE11.1 kmh ESE 9.8 mph15.8 kmh 30.01 in1016.3 mb 0.01 in0.3 mm 0.00 in/hr0.0 mm/hr 0.02 in0.5 mm
02:05 PM 50.4°F10.2°C 45.4°F7.4°C 83% 7.3 mph SE11.7 kmh SE 10.7 mph17.2 kmh 30.01 in1016.3 mb 0.01 in0.3 mm 0.00 in/hr0.0 mm/hr 0.02 in0.5 mm
02:00 PM 50.4°F10.2°C 45.4°F7.4°C 83% 6.8 mph ESE10.9 kmh ESE 10.7 mph17.2 kmh 30.01 in1016.3 mb 0.01 in0.3 mm 0.00 in/hr0.0 mm/hr 0.02 in0.5 mm
01:55 PM 50.4°F10.2°C 45.7°F7.6°C 84% 6.8 mph SE10.9 kmh SE 9.2 mph14.8 kmh 30.01 in1016.3 mb 0.01 in0.3 mm 0.00 in/hr0.0 mm/hr 0.02 in0.5 mm
01:50 PM 50.0°F10.0°C 45.4°F7.4°C 84% 7.0 mph ESE11.3 kmh ESE 9.2 mph14.8 kmh 30.01 in1016.3 mb 0.01 in0.3 mm 0.00 in/hr0.0 mm/hr 0.02 in0.5 mm
01:45 PM 49.8°F9.9°C 45.5°F7.5°C 85% 6.2 mph E10.0 kmh E 8.3 mph13.4 kmh 30.01 in1016.3 mb 0.01 in0.3 mm 0.00 in/hr0.0 mm/hr 0.02 in0.5 mm
01:40 PM 49.5°F9.7°C 45.1°F7.3°C 85% 5.9 mph ESE9.5 kmh ESE 9.2 mph14.8 kmh 30.02 in1016.6 mb 0.01 in0.3 mm 0.00 in/hr0.0 mm/hr 0.02 in0.5 mm
01:35 PM 49.1°F9.5°C 44.8°F7.1°C 85% 6.7 mph ESE10.8 kmh ESE 9.8 mph15.8 kmh 30.02 in1016.6 mb 0.01 in0.3 mm 0.00 in/hr0.0 mm/hr 0.02 in0.5 mm
01:30 PM 49.1°F9.5°C 44.5°F6.9°C 84% 6.0 mph SE9.7 kmh SE 9.8 mph15.8 kmh 30.02 in1016.6 mb 0.01 in0.3 mm 0.00 in/hr0.0 mm/hr 0.02 in0.5 mm
01:25 PM 49.3°F9.6°C 44.7°F7.1°C 84% 5.6 mph SE9.0 kmh SE 9.2 mph14.8 kmh 30.02 in1016.6 mb 0.01 in0.3 mm 0.12 in/hr3.0 mm/hr 0.02 in0.5 mm
01:20 PM 49.6°F9.8°C 45.0°F7.2°C 84% 6.4 mph SE10.3 kmh SE 9.2 mph14.8 kmh 30.02 in1016.6 mb 0.00 in0.0 mm 0.00 in/hr0.0 mm/hr 0.01 in0.3 mm
01:15 PM 50.0°F10.0°C 45.4°F7.4°C 84% 6.1 mph SE9.8 kmh SE 9.2 mph14.8 kmh 30.02 in1016.6 mb 0.00 in0.0 mm 0.00 in/hr0.0 mm/hr 0.01 in0.3 mm
01:10 PM 50.4°F10.2°C 45.7°F7.6°C 84% 5.5 mph ESE8.9 kmh ESE 8.3 mph13.4 kmh 30.03 in1016.9 mb 0.00 in0.0 mm 0.00 in/hr0.0 mm/hr 0.01 in0.3 mm
01:05 PM 50.4°F10.2°C 46.0°F7.8°C 85% 5.9 mph ESE9.5 kmh ESE 9.8 mph15.8 kmh 30.03 in1016.9 mb 0.00 in0.0 mm 0.00 in/hr0.0 mm/hr 0.01 in0.3 mm
01:00 PM 50.4°F10.2°C 46.0°F7.8°C 85% 6.3 mph ESE10.1 kmh ESE 9.8 mph15.8 kmh 30.03 in1016.9 mb 0.00 in0.0 mm 0.00 in/hr0.0 mm/hr 0.01 in0.3 mm
12:55 PM 49.5°F9.7°C 45.5°F7.5°C 86% 5.5 mph E8.9 kmh E 8.3 mph13.4 kmh 30.04 in1017.3 mb 0.00 in0.0 mm 0.00 in/hr0.0 mm/hr 0.01 in0.3 mm
12:50 PM 48.7°F9.3°C 45.0°F7.2°C 87% 4.7 mph ESE7.6 kmh ESE 8.3 mph13.4 kmh 30.04 in1017.3 mb 0.00 in0.0 mm 0.00 in/hr0.0 mm/hr 0.01 in0.3 mm
12:45 PM 48.2°F9.0°C 44.8°F7.1°C 88% 4.4 mph SE7.1 kmh SE 6.0 mph9.7 kmh 30.04 in1017.3 mb 0.00 in0.0 mm 0.00 in/hr0.0 mm/hr 0.01 in0.3 mm
12:40 PM 47.7°F8.7°C 44.6°F7.0°C 89% 4.6 mph SE7.4 kmh SE 5.4 mph8.7 kmh 30.05 in1017.6 mb 0.00 in0.0 mm 0.00 in/hr0.0 mm/hr 0.01 in0.3 mm
12:35 PM 46.9°F8.3°C 43.9°F6.6°C 89% 4.6 mph SE7.4 kmh SE 6.0 mph9.7 kmh 30.05 in1017.6 mb 0.00 in0.0 mm 0.00 in/hr0.0 mm/hr 0.01 in0.3 mm
12:30 PM 46.6°F8.1°C 43.5°F6.4°C 89% 4.2 mph SE6.8 kmh SE 6.0 mph9.7 kmh 30.06 in1017.9 mb 0.00 in0.0 mm 0.00 in/hr0.0 mm/hr 0.01 in0.3 mm
12:25 PM 46.4°F8.0°C 43.3°F6.3°C 89% 3.8 mph ESE6.1 kmh ESE 4.5 mph7.2 kmh 30.06 in1017.9 mb 0.00 in0.0 mm 0.00 in/hr0.0 mm/hr 0.01 in0.3 mm
12:20 PM 46.2°F7.9°C 43.2°F6.2°C 89% 4.1 mph ESE6.6 kmh ESE 6.0 mph9.7 kmh 30.06 in1017.9 mb 0.00 in0.0 mm 0.00 in/hr0.0 mm/hr 0.01 in0.3 mm
12:15 PM 46.2°F7.9°C 43.2°F6.2°C 89% 3.9 mph ESE6.3 kmh ESE 6.0 mph9.7 kmh 30.06 in1017.9 mb 0.00 in0.0 mm 0.00 in/hr0.0 mm/hr 0.01 in0.3 mm
12:10 PM 46.4°F8.0°C 43.3°F6.3°C 89% 3.4 mph SE5.5 kmh SE 6.0 mph9.7 kmh 30.06 in1017.9 mb 0.00 in0.0 mm 0.00 in/hr0.0 mm/hr 0.01 in0.3 mm
12:05 PM 46.4°F8.0°C 43.3°F6.3°C 89% 3.4 mph SE5.5 kmh SE 4.5 mph7.2 kmh 30.07 in1018.3 mb 0.00 in0.0 mm 0.00 in/hr0.0 mm/hr 0.01 in0.3 mm
12:00 PM 46.6°F8.1°C 43.8°F6.6°C 90% 4.0 mph SE6.4 kmh SE 5.4 mph8.7 kmh 30.07 in1018.3 mb 0.00 in0.0 mm 0.00 in/hr0.0 mm/hr 0.01 in0.3 mm
11:55 AM 46.6°F8.1°C 43.8°F6.6°C 90% 4.2 mph SE6.8 kmh SE 5.4 mph8.7 kmh 30.08 in1018.6 mb 0.00 in0.0 mm 0.00 in/hr0.0 mm/hr 0.01 in0.3 mm
11:50 AM 46.2°F7.9°C 43.5°F6.4°C 90% 2.9 mph SE4.7 kmh SE 4.5 mph7.2 kmh 30.08 in1018.6 mb 0.00 in0.0 mm 0.00 in/hr0.0 mm/hr 0.01 in0.3 mm
11:45 AM 46.2°F7.9°C 43.5°F6.4°C 90% 2.1 mph SSE3.4 kmh SSE 3.1 mph5.0 kmh 30.08 in1018.6 mb 0.00 in0.0 mm 0.00 in/hr0.0 mm/hr 0.01 in0.3 mm
11:40 AM 46.0°F7.8°C 43.3°F6.3°C 90% 2.7 mph SE4.3 kmh SE 4.5 mph7.2 kmh 30.08 in1018.6 mb 0.00 in0.0 mm 0.00 in/hr0.0 mm/hr 0.01 in0.3 mm
11:35 AM 45.9°F7.7°C 43.1°F6.2°C 90% 3.0 mph ESE4.8 kmh ESE 4.5 mph7.2 kmh 30.08 in1018.6 mb 0.00 in0.0 mm 0.00 in/hr0.0 mm/hr 0.01 in0.3 mm
11:30 AM 45.5°F7.5°C 43.0°F6.1°C 91% 2.8 mph SE4.5 kmh SE 4.5 mph7.2 kmh 30.08 in1018.6 mb 0.00 in0.0 mm 0.00 in/hr0.0 mm/hr 0.01 in0.3 mm
11:25 AM 45.1°F7.3°C 42.7°F5.9°C 91% 2.9 mph SE4.7 kmh SE 3.8 mph6.1 kmh 30.09 in1019.0 mb 0.00 in0.0 mm 0.00 in/hr0.0 mm/hr 0.01 in0.3 mm
11:20 AM 44.8°F7.1°C 42.3°F5.7°C 91% 3.2 mph SE5.1 kmh SE 4.5 mph7.2 kmh 30.08 in1018.6 mb 0.00 in0.0 mm 0.00 in/hr0.0 mm/hr 0.01 in0.3 mm
11:15 AM 44.4°F6.9°C 42.0°F5.6°C 91% 3.9 mph SE6.3 kmh SE 6.0 mph9.7 kmh 30.08 in1018.6 mb 0.00 in0.0 mm 0.00 in/hr0.0 mm/hr 0.01 in0.3 mm
11:10 AM 44.2°F6.8°C 41.8°F5.4°C 91% 3.9 mph SE6.3 kmh SE 6.0 mph9.7 kmh 30.09 in1019.0 mb 0.00 in0.0 mm 0.00 in/hr0.0 mm/hr 0.01 in0.3 mm
11:05 AM 44.1°F6.7°C 41.3°F5.2°C 90% 3.3 mph SE5.3 kmh SE 4.5 mph7.2 kmh 30.09 in1019.0 mb 0.00 in0.0 mm 0.00 in/hr0.0 mm/hr 0.01 in0.3 mm
11:00 AM 43.9°F6.6°C 41.4°F5.2°C 91% 2.4 mph SE3.9 kmh SE 3.8 mph6.1 kmh 30.09 in1019.0 mb 0.00 in0.0 mm 0.00 in/hr0.0 mm/hr 0.01 in0.3 mm
10:55 AM 43.9°F6.6°C 41.1°F5.1°C 90% 1.6 mph S2.6 kmh S 2.2 mph3.5 kmh 30.09 in1019.0 mb 0.00 in0.0 mm 0.00 in/hr0.0 mm/hr 0.01 in0.3 mm
10:50 AM 43.7°F6.5°C 41.0°F5.0°C 90% 1.5 mph SSE2.4 kmh SSE 3.1 mph5.0 kmh 30.09 in1019.0 mb 0.01 in0.3 mm 0.00 in/hr0.0 mm/hr 0.01 in0.3 mm
10:45 AM 43.5°F6.4°C 40.8°F4.9°C 90% 1.7 mph SSE2.7 kmh SSE 3.1 mph5.0 kmh 30.09 in1019.0 mb 0.01 in0.3 mm 0.00 in/hr0.0 mm/hr 0.01 in0.3 mm
10:40 AM 43.3°F6.3°C 40.6°F4.8°C 90% 2.4 mph S3.9 kmh S 5.4 mph8.7 kmh 30.09 in1019.0 mb 0.01 in0.3 mm 0.00 in/hr0.0 mm/hr 0.01 in0.3 mm
10:35 AM 43.3°F6.3°C 40.6°F4.8°C 90% 2.5 mph SSE4.0 kmh SSE 5.4 mph8.7 kmh 30.09 in1019.0 mb 0.01 in0.3 mm 0.00 in/hr0.0 mm/hr 0.01 in0.3 mm
10:30 AM 43.3°F6.3°C 40.3°F4.6°C 89% 2.4 mph SE3.9 kmh SE 3.8 mph6.1 kmh 30.09 in1019.0 mb 0.01 in0.3 mm 0.00 in/hr0.0 mm/hr 0.01 in0.3 mm
10:25 AM 43.3°F6.3°C 40.3°F4.6°C 89% 2.5 mph ESE4.0 kmh ESE 3.8 mph6.1 kmh 30.10 in1019.3 mb 0.01 in0.3 mm 0.00 in/hr0.0 mm/hr 0.01 in0.3 mm
10:20 AM 43.3°F6.3°C 40.3°F4.6°C 89% 3.1 mph E5.0 kmh E 5.4 mph8.7 kmh 30.10 in1019.3 mb 0.01 in0.3 mm 0.00 in/hr0.0 mm/hr 0.01 in0.3 mm
10:15 AM 43.2°F6.2°C 40.1°F4.5°C 89% 3.2 mph ESE5.1 kmh ESE 5.4 mph8.7 kmh 30.10 in1019.3 mb 0.01 in0.3 mm 0.00 in/hr0.0 mm/hr 0.01 in0.3 mm
10:10 AM 43.0°F6.1°C 40.0°F4.4°C 89% 2.8 mph SE4.5 kmh SE 3.8 mph6.1 kmh 30.10 in1019.3 mb 0.01 in0.3 mm 0.00 in/hr0.0 mm/hr 0.01 in0.3 mm
10:05 AM 42.8°F6.0°C 39.8°F4.3°C 89% 2.5 mph SE4.0 kmh SE 3.8 mph6.1 kmh 30.09 in1019.0 mb 0.01 in0.3 mm 0.00 in/hr0.0 mm/hr 0.01 in0.3 mm
10:00 AM 42.8°F6.0°C 39.5°F4.2°C 88% 2.9 mph SW4.7 kmh SW 6.0 mph9.7 kmh 30.09 in1019.0 mb 0.01 in0.3 mm 0.00 in/hr0.0 mm/hr 0.01 in0.3 mm
09:55 AM 43.0°F6.1°C 39.1°F3.9°C 86% 3.1 mph W5.0 kmh W 6.0 mph9.7 kmh 30.10 in1019.3 mb 0.01 in0.3 mm 0.12 in/hr3.0 mm/hr 0.01 in0.3 mm
09:50 AM 43.3°F6.3°C 39.1°F3.9°C 85% 2.3 mph NW3.7 kmh NW 5.4 mph8.7 kmh 30.11 in1019.6 mb 0.00 in0.0 mm 0.00 in/hr0.0 mm/hr 0.00 in0.0 mm
09:45 AM 43.3°F6.3°C 39.1°F3.9°C 85% 1.9 mph N3.1 kmh N 3.1 mph5.0 kmh 30.10 in1019.3 mb 0.00 in0.0 mm 0.00 in/hr0.0 mm/hr 0.00 in0.0 mm
09:40 AM 43.3°F6.3°C 38.8°F3.8°C 84% 2.3 mph NNW3.7 kmh NNW 4.5 mph7.2 kmh 30.10 in1019.3 mb 0.00 in0.0 mm 0.00 in/hr0.0 mm/hr 0.00 in0.0 mm
09:35 AM 43.3°F6.3°C 38.8°F3.8°C 84% 3.1 mph NW5.0 kmh NW 6.0 mph9.7 kmh 30.10 in1019.3 mb 0.00 in0.0 mm 0.00 in/hr0.0 mm/hr 0.00 in0.0 mm
09:30 AM 43.5°F6.4°C 39.0°F3.9°C 84% 3.0 mph ESE4.8 kmh ESE 6.0 mph9.7 kmh 30.10 in1019.3 mb 0.00 in0.0 mm 0.00 in/hr0.0 mm/hr 0.00 in0.0 mm
09:25 AM 43.5°F6.4°C 39.0°F3.9°C 84% 2.4 mph E3.9 kmh E 5.4 mph8.7 kmh 30.10 in1019.3 mb 0.00 in0.0 mm 0.00 in/hr0.0 mm/hr 0.00 in0.0 mm
09:20 AM 43.5°F6.4°C 38.7°F3.7°C 83% 2.1 mph NE3.4 kmh NE 5.4 mph8.7 kmh 30.10 in1019.3 mb 0.00 in0.0 mm 0.00 in/hr0.0 mm/hr 0.00 in0.0 mm
09:15 AM 43.5°F6.4°C 38.7°F3.7°C 83% 2.8 mph E4.5 kmh E 6.9 mph11.1 kmh 30.10 in1019.3 mb 0.00 in0.0 mm 0.00 in/hr0.0 mm/hr 0.00 in0.0 mm
09:10 AM 43.3°F6.3°C 38.5°F3.6°C 83% 4.1 mph SE6.6 kmh SE 7.6 mph12.2 kmh 30.10 in1019.3 mb 0.00 in0.0 mm 0.00 in/hr0.0 mm/hr 0.00 in0.0 mm
09:05 AM 43.2°F6.2°C 38.7°F3.7°C 84% 4.0 mph SE6.4 kmh SE 7.6 mph12.2 kmh 30.10 in1019.3 mb 0.00 in0.0 mm 0.00 in/hr0.0 mm/hr 0.00 in0.0 mm
09:00 AM 42.8°F6.0°C 38.6°F3.7°C 85% 1.9 mph SE3.1 kmh SE 5.4 mph8.7 kmh 30.10 in1019.3 mb 0.00 in0.0 mm 0.00 in/hr0.0 mm/hr 0.00 in0.0 mm
08:55 AM 42.6°F5.9°C 38.4°F3.6°C 85% 0.8 mph S1.3 kmh S 1.6 mph2.6 kmh 30.10 in1019.3 mb 0.00 in0.0 mm 0.00 in/hr0.0 mm/hr 0.00 in0.0 mm
08:50 AM 42.4°F5.8°C 38.3°F3.5°C 85% 1.1 mph S1.8 kmh S 3.1 mph5.0 kmh 30.09 in1019.0 mb 0.00 in0.0 mm 0.00 in/hr0.0 mm/hr 0.00 in0.0 mm
08:45 AM 42.4°F5.8°C 38.0°F3.3°C 84% 2.3 mph SSE3.7 kmh SSE 4.5 mph7.2 kmh 30.09 in1019.0 mb 0.00 in0.0 mm 0.00 in/hr0.0 mm/hr 0.00 in0.0 mm
08:40 AM 42.3°F5.7°C 37.8°F3.2°C 84% 3.4 mph SE5.5 kmh SE 5.4 mph8.7 kmh 30.09 in1019.0 mb 0.00 in0.0 mm 0.00 in/hr0.0 mm/hr 0.00 in0.0 mm
08:35 AM 42.3°F5.7°C 38.1°F3.4°C 85% 3.8 mph SE6.1 kmh SE 6.0 mph9.7 kmh 30.09 in1019.0 mb 0.00 in0.0 mm 0.00 in/hr0.0 mm/hr 0.00 in0.0 mm
08:30 AM 41.9°F5.5°C 37.7°F3.2°C 85% 3.5 mph SE5.6 kmh SE 6.0 mph9.7 kmh 30.10 in1019.3 mb 0.00 in0.0 mm 0.00 in/hr0.0 mm/hr 0.00 in0.0 mm
08:25 AM 41.9°F5.5°C 38.0°F3.3°C 86% 3.5 mph SE5.6 kmh SE 7.6 mph12.2 kmh 30.10 in1019.3 mb 0.00 in0.0 mm 0.00 in/hr0.0 mm/hr 0.00 in0.0 mm
08:20 AM 41.7°F5.4°C 37.8°F3.2°C 86% 4.2 mph E6.8 kmh E 7.6 mph12.2 kmh 30.10 in1019.3 mb 0.00 in0.0 mm 0.00 in/hr0.0 mm/hr 0.00 in0.0 mm
08:15 AM 41.5°F5.3°C 37.7°F3.2°C 86% 4.2 mph E6.8 kmh E 7.6 mph12.2 kmh 30.09 in1019.0 mb 0.00 in0.0 mm 0.00 in/hr0.0 mm/hr 0.00 in0.0 mm
08:10 AM 41.4°F5.2°C 37.8°F3.2°C 87% 4.5 mph E7.2 kmh E 6.9 mph11.1 kmh 30.10 in1019.3 mb 0.00 in0.0 mm 0.00 in/hr0.0 mm/hr 0.00 in0.0 mm
08:05 AM 41.2°F5.1°C 37.9°F3.3°C 88% 3.6 mph E5.8 kmh E 6.9 mph11.1 kmh 30.09 in1019.0 mb 0.00 in0.0 mm 0.00 in/hr0.0 mm/hr 0.00 in0.0 mm
08:00 AM 41.0°F5.0°C 37.7°F3.2°C 88% 2.1 mph NE3.4 kmh NE 3.8 mph6.1 kmh 30.09 in1019.0 mb 0.00 in0.0 mm 0.00 in/hr0.0 mm/hr 0.00 in0.0 mm
07:55 AM 40.8°F4.9°C 37.5°F3.1°C 88% 2.6 mph NE4.2 kmh NE 3.8 mph6.1 kmh 30.09 in1019.0 mb 0.00 in0.0 mm 0.00 in/hr0.0 mm/hr 0.00 in0.0 mm
07:50 AM 40.8°F4.9°C 37.8°F3.2°C 89% 3.1 mph E5.0 kmh E 3.8 mph6.1 kmh 30.09 in1019.0 mb 0.00 in0.0 mm 0.00 in/hr0.0 mm/hr 0.00 in0.0 mm
07:45 AM 40.6°F4.8°C 37.7°F3.2°C 89% 2.3 mph E3.7 kmh E 3.8 mph6.1 kmh 30.09 in1019.0 mb 0.00 in0.0 mm 0.00 in/hr0.0 mm/hr 0.00 in0.0 mm
07:40 AM 40.3°F4.6°C 37.6°F3.1°C 90% 1.6 mph NW2.6 kmh NW 3.1 mph5.0 kmh 30.09 in1019.0 mb 0.00 in0.0 mm 0.00 in/hr0.0 mm/hr 0.00 in0.0 mm
07:35 AM 40.1°F4.5°C 37.4°F3.0°C 90% 1.5 mph WNW2.4 kmh WNW 3.1 mph5.0 kmh 30.09 in1019.0 mb 0.00 in0.0 mm 0.00 in/hr0.0 mm/hr 0.00 in0.0 mm
07:30 AM 40.1°F4.5°C 37.4°F3.0°C 90% 1.4 mph W2.3 kmh W 3.8 mph6.1 kmh 30.09 in1019.0 mb 0.00 in0.0 mm 0.00 in/hr0.0 mm/hr 0.00 in0.0 mm
07:25 AM 39.7°F4.3°C 37.1°F2.8°C 90% 1.5 mph WSW2.4 kmh WSW 3.8 mph6.1 kmh 30.09 in1019.0 mb 0.00 in0.0 mm 0.00 in/hr0.0 mm/hr 0.00 in0.0 mm
07:20 AM 39.7°F4.3°C 37.1°F2.8°C 90% 1.5 mph W2.4 kmh W 3.8 mph6.1 kmh 30.09 in1019.0 mb 0.00 in0.0 mm 0.00 in/hr0.0 mm/hr 0.00 in0.0 mm
07:15 AM 39.6°F4.2°C 36.9°F2.7°C 90% 0.8 mph WSW1.3 kmh WSW 2.2 mph3.5 kmh 30.09 in1019.0 mb 0.00 in0.0 mm 0.00 in/hr0.0 mm/hr 0.00 in0.0 mm
07:10 AM 39.6°F4.2°C 36.9°F2.7°C 90% 0.6 mph SSW1.0 kmh SSW 2.2 mph3.5 kmh 30.08 in1018.6 mb 0.00 in0.0 mm 0.00 in/hr0.0 mm/hr 0.00 in0.0 mm
07:05 AM 39.7°F4.3°C 37.1°F2.8°C 90% 1.2 mph W1.9 kmh W 2.2 mph3.5 kmh 30.08 in1018.6 mb 0.00 in0.0 mm 0.00 in/hr0.0 mm/hr 0.00 in0.0 mm
07:00 AM 39.7°F4.3°C 37.1°F2.8°C 90% 2.0 mph W3.2 kmh W 3.1 mph5.0 kmh 30.09 in1019.0 mb 0.00 in0.0 mm 0.00 in/hr0.0 mm/hr 0.00 in0.0 mm
06:55 AM 39.7°F4.3°C 37.1°F2.8°C 90% 1.4 mph W2.3 kmh W 3.1 mph5.0 kmh 30.09 in1019.0 mb 0.00 in0.0 mm 0.00 in/hr0.0 mm/hr 0.00 in0.0 mm
06:50 AM 39.7°F4.3°C 36.8°F2.7°C 89% 0.5 mph W0.8 kmh W 2.2 mph3.5 kmh 30.09 in1019.0 mb 0.00 in0.0 mm 0.00 in/hr0.0 mm/hr 0.00 in0.0 mm
06:45 AM 39.7°F4.3°C 37.1°F2.8°C 90% 1.1 mph NNW1.8 kmh NNW 3.8 mph6.1 kmh 30.08 in1018.6 mb 0.00 in0.0 mm 0.00 in/hr0.0 mm/hr 0.00 in0.0 mm
06:40 AM 39.7°F4.3°C 37.1°F2.8°C 90% 1.5 mph NW2.4 kmh NW 3.8 mph6.1 kmh 30.09 in1019.0 mb 0.00 in0.0 mm 0.00 in/hr0.0 mm/hr 0.00 in0.0 mm
06:35 AM 39.7°F4.3°C 37.1°F2.8°C 90% 0.8 mph SSW1.3 kmh SSW 1.6 mph2.6 kmh 30.09 in1019.0 mb 0.00 in0.0 mm 0.00 in/hr0.0 mm/hr 0.00 in0.0 mm
06:30 AM 39.7°F4.3°C 37.1°F2.8°C 90% 0.9 mph S1.4 kmh S 2.2 mph3.5 kmh 30.09 in1019.0 mb 0.00 in0.0 mm 0.00 in/hr0.0 mm/hr 0.00 in0.0 mm
06:25 AM 39.6°F4.2°C 36.9°F2.7°C 90% 1.4 mph SW2.3 kmh SW 2.2 mph3.5 kmh 30.09 in1019.0 mb 0.00 in0.0 mm 0.00 in/hr0.0 mm/hr 0.00 in0.0 mm
06:20 AM 39.4°F4.1°C 36.7°F2.6°C 90% 1.4 mph WNW2.3 kmh WNW 2.2 mph3.5 kmh 30.09 in1019.0 mb 0.00 in0.0 mm 0.00 in/hr0.0 mm/hr 0.00 in0.0 mm
06:15 AM 39.4°F4.1°C 36.7°F2.6°C 90% 1.0 mph W1.6 kmh W 1.6 mph2.6 kmh 30.09 in1019.0 mb 0.00 in0.0 mm 0.00 in/hr0.0 mm/hr 0.00 in0.0 mm
06:10 AM 39.4°F4.1°C 36.7°F2.6°C 90% 1.0 mph W1.6 kmh W 1.6 mph2.6 kmh 30.08 in1018.6 mb 0.00 in0.0 mm 0.00 in/hr0.0 mm/hr 0.00 in0.0 mm
06:05 AM 39.4°F4.1°C 36.7°F2.6°C 90% 1.3 mph WNW2.1 kmh WNW 2.2 mph3.5 kmh 30.08 in1018.6 mb 0.00 in0.0 mm 0.00 in/hr0.0 mm/hr 0.00 in0.0 mm
06:00 AM 39.4°F4.1°C 36.7°F2.6°C 90% 1.2 mph W1.9 kmh W 2.2 mph3.5 kmh 30.09 in1019.0 mb 0.00 in0.0 mm 0.00 in/hr0.0 mm/hr 0.00 in0.0 mm
05:55 AM 39.6°F4.2°C 36.9°F2.7°C 90% 0.7 mph SW1.1 kmh SW 1.6 mph2.6 kmh 30.08 in1018.6 mb 0.00 in0.0 mm 0.00 in/hr0.0 mm/hr 0.00 in0.0 mm
05:50 AM 39.7°F4.3°C 37.1°F2.8°C 90% 0.9 mph WSW1.4 kmh WSW 1.6 mph2.6 kmh 30.08 in1018.6 mb 0.00 in0.0 mm 0.00 in/hr0.0 mm/hr 0.00 in0.0 mm
05:45 AM 39.7°F4.3°C 37.1°F2.8°C 90% 1.0 mph W1.6 kmh W 1.6 mph2.6 kmh 30.09 in1019.0 mb 0.00 in0.0 mm 0.00 in/hr0.0 mm/hr 0.00 in0.0 mm
05:40 AM 39.6°F4.2°C 36.9°F2.7°C 90% 1.0 mph SW1.6 kmh SW 1.6 mph2.6 kmh 30.08 in1018.6 mb 0.00 in0.0 mm 0.00 in/hr0.0 mm/hr 0.00 in0.0 mm
05:35 AM 39.6°F4.2°C 36.9°F2.7°C 90% 0.8 mph SW1.3 kmh SW 1.6 mph2.6 kmh 30.08 in1018.6 mb 0.00 in0.0 mm 0.00 in/hr0.0 mm/hr 0.00 in0.0 mm
05:30 AM 39.6°F4.2°C 36.9°F2.7°C 90% 0.6 mph WSW1.0 kmh WSW 2.2 mph3.5 kmh 30.09 in1019.0 mb 0.00 in0.0 mm 0.00 in/hr0.0 mm/hr 0.00 in0.0 mm
05:25 AM 39.4°F4.1°C 36.7°F2.6°C 90% 1.2 mph SSE1.9 kmh SSE 2.2 mph3.5 kmh 30.09 in1019.0 mb 0.00 in0.0 mm 0.00 in/hr0.0 mm/hr 0.00 in0.0 mm
05:20 AM 39.2°F4.0°C 36.5°F2.5°C 90% 1.4 mph SSE2.3 kmh SSE 3.1 mph5.0 kmh 30.09 in1019.0 mb 0.00 in0.0 mm 0.00 in/hr0.0 mm/hr 0.00 in0.0 mm
05:15 AM 39.2°F4.0°C 36.5°F2.5°C 90% 0.8 mph S1.3 kmh S 3.1 mph5.0 kmh 30.09 in1019.0 mb 0.00 in0.0 mm 0.00 in/hr0.0 mm/hr 0.00 in0.0 mm
05:10 AM 39.2°F4.0°C 36.5°F2.5°C 90% 0.8 mph W1.3 kmh W 1.6 mph2.6 kmh 30.09 in1019.0 mb 0.00 in0.0 mm 0.00 in/hr0.0 mm/hr 0.00 in0.0 mm
05:05 AM 39.4°F4.1°C 36.7°F2.6°C 90% 1.0 mph WNW1.6 kmh WNW 1.6 mph2.6 kmh 30.09 in1019.0 mb 0.00 in0.0 mm 0.00 in/hr0.0 mm/hr 0.00 in0.0 mm
05:00 AM 39.6°F4.2°C 36.9°F2.7°C 90% 0.8 mph N1.3 kmh N 1.6 mph2.6 kmh 30.09 in1019.0 mb 0.00 in0.0 mm 0.00 in/hr0.0 mm/hr 0.00 in0.0 mm
04:55 AM 39.6°F4.2°C 36.9°F2.7°C 90% 1.0 mph NE1.6 kmh NE 1.6 mph2.6 kmh 30.10 in1019.3 mb 0.00 in0.0 mm 0.00 in/hr0.0 mm/hr 0.00 in0.0 mm
04:50 AM 39.6°F4.2°C 36.9°F2.7°C 90% 1.4 mph SSE2.3 kmh SSE 3.1 mph5.0 kmh 30.09 in1019.0 mb 0.00 in0.0 mm 0.00 in/hr0.0 mm/hr 0.00 in0.0 mm
04:45 AM 39.7°F4.3°C 36.8°F2.7°C 89% 1.4 mph SSE2.3 kmh SSE 3.1 mph5.0 kmh 30.09 in1019.0 mb 0.00 in0.0 mm 0.00 in/hr0.0 mm/hr 0.00 in0.0 mm
04:40 AM 40.6°F4.8°C 37.7°F3.2°C 89% 1.0 mph SE1.6 kmh SE 2.2 mph3.5 kmh 30.10 in1019.3 mb 0.00 in0.0 mm 0.00 in/hr0.0 mm/hr 0.00 in0.0 mm
04:35 AM 39.9°F4.4°C 36.9°F2.7°C 89% 1.1 mph ESE1.8 kmh ESE 3.1 mph5.0 kmh 30.09 in1019.0 mb 0.00 in0.0 mm 0.00 in/hr0.0 mm/hr 0.00 in0.0 mm
04:30 AM 39.9°F4.4°C 36.9°F2.7°C 89% 1.5 mph ESE2.4 kmh ESE 3.1 mph5.0 kmh 30.09 in1019.0 mb 0.00 in0.0 mm 0.00 in/hr0.0 mm/hr 0.00 in0.0 mm
04:25 AM 39.7°F4.3°C 36.8°F2.7°C 89% 2.0 mph SE3.2 kmh SE 3.1 mph5.0 kmh 30.09 in1019.0 mb 0.00 in0.0 mm 0.00 in/hr0.0 mm/hr 0.00 in0.0 mm
04:20 AM 39.7°F4.3°C 36.8°F2.7°C 89% 1.8 mph SE2.9 kmh SE 3.1 mph5.0 kmh 30.09 in1019.0 mb 0.00 in0.0 mm 0.00 in/hr0.0 mm/hr 0.00 in0.0 mm
04:15 AM 39.7°F4.3°C 36.8°F2.7°C 89% 2.3 mph ESE3.7 kmh ESE 4.5 mph7.2 kmh 30.09 in1019.0 mb 0.00 in0.0 mm 0.00 in/hr0.0 mm/hr 0.00 in0.0 mm
04:10 AM 39.6°F4.2°C 36.6°F2.6°C 89% 2.3 mph E3.7 kmh E 4.5 mph7.2 kmh 30.09 in1019.0 mb 0.00 in0.0 mm 0.00 in/hr0.0 mm/hr 0.00 in0.0 mm
04:05 AM 39.6°F4.2°C 36.6°F2.6°C 89% 1.1 mph N1.8 kmh N 2.2 mph3.5 kmh 30.09 in1019.0 mb 0.00 in0.0 mm 0.00 in/hr0.0 mm/hr 0.00 in0.0 mm
04:00 AM 39.7°F4.3°C 36.8°F2.7°C 89% 1.7 mph E2.7 kmh E 3.8 mph6.1 kmh 30.10 in1019.3 mb 0.00 in0.0 mm 0.00 in/hr0.0 mm/hr 0.00 in0.0 mm
03:55 AM 39.7°F4.3°C 37.1°F2.8°C 90% 2.3 mph E3.7 kmh E 3.8 mph6.1 kmh 30.09 in1019.0 mb 0.00 in0.0 mm 0.00 in/hr0.0 mm/hr 0.00 in0.0 mm
03:50 AM 39.7°F4.3°C 37.1°F2.8°C 90% 2.2 mph ESE3.5 kmh ESE 3.1 mph5.0 kmh 30.09 in1019.0 mb 0.00 in0.0 mm 0.00 in/hr0.0 mm/hr 0.00 in0.0 mm
03:45 AM 39.7°F4.3°C 37.1°F2.8°C 90% 2.2 mph SE3.5 kmh SE 3.1 mph5.0 kmh 30.09 in1019.0 mb 0.00 in0.0 mm 0.00 in/hr0.0 mm/hr 0.00 in0.0 mm
03:40 AM 39.7°F4.3°C 37.1°F2.8°C 90% 1.2 mph SE1.9 kmh SE 3.1 mph5.0 kmh 30.09 in1019.0 mb 0.00 in0.0 mm 0.00 in/hr0.0 mm/hr 0.00 in0.0 mm
03:35 AM 39.7°F4.3°C 37.1°F2.8°C 90% 1.2 mph ENE1.9 kmh ENE 3.1 mph5.0 kmh 30.09 in1019.0 mb 0.00 in0.0 mm 0.00 in/hr0.0 mm/hr 0.00 in0.0 mm
03:30 AM 39.7°F4.3°C 37.3°F2.9°C 91% 2.2 mph E3.5 kmh E 4.5 mph7.2 kmh 30.09 in1019.0 mb 0.00 in0.0 mm 0.00 in/hr0.0 mm/hr 0.00 in0.0 mm
03:25 AM 39.6°F4.2°C 37.2°F2.9°C 91% 1.6 mph E2.6 kmh E 4.5 mph7.2 kmh 30.09 in1019.0 mb 0.00 in0.0 mm 0.00 in/hr0.0 mm/hr 0.00 in0.0 mm
03:20 AM 39.4°F4.1°C 37.0°F2.8°C 91% 1.4 mph NE2.3 kmh NE 3.1 mph5.0 kmh 30.09 in1019.0 mb 0.00 in0.0 mm 0.00 in/hr0.0 mm/hr 0.00 in0.0 mm
03:15 AM 39.2°F4.0°C 36.8°F2.7°C 91% 1.8 mph NE2.9 kmh NE 3.1 mph5.0 kmh 30.09 in1019.0 mb 0.00 in0.0 mm 0.00 in/hr0.0 mm/hr 0.00 in0.0 mm
03:10 AM 39.0°F3.9°C 36.6°F2.6°C 91% 1.5 mph ENE2.4 kmh ENE 3.1 mph5.0 kmh 30.09 in1019.0 mb 0.00 in0.0 mm 0.00 in/hr0.0 mm/hr 0.00 in0.0 mm
03:05 AM 38.7°F3.7°C 36.3°F2.4°C 91% 1.5 mph ESE2.4 kmh ESE 3.1 mph5.0 kmh 30.09 in1019.0 mb 0.00 in0.0 mm 0.00 in/hr0.0 mm/hr 0.00 in0.0 mm
03:00 AM 38.5°F3.6°C 36.1°F2.3°C 91% 2.0 mph SE3.2 kmh SE 3.1 mph5.0 kmh 30.09 in1019.0 mb 0.00 in0.0 mm 0.00 in/hr0.0 mm/hr 0.00 in0.0 mm
02:55 AM 38.3°F3.5°C 35.9°F2.2°C 91% 1.5 mph SSE2.4 kmh SSE 3.1 mph5.0 kmh 30.09 in1019.0 mb 0.00 in0.0 mm 0.00 in/hr0.0 mm/hr 0.00 in0.0 mm
02:50 AM 38.1°F3.4°C 35.7°F2.1°C 91% 1.6 mph SSE2.6 kmh SSE 3.8 mph6.1 kmh 30.09 in1019.0 mb 0.00 in0.0 mm 0.00 in/hr0.0 mm/hr 0.00 in0.0 mm
02:45 AM 37.9°F3.3°C 35.6°F2.0°C 91% 1.7 mph SSE2.7 kmh SSE 3.8 mph6.1 kmh 30.10 in1019.3 mb 0.00 in0.0 mm 0.00 in/hr0.0 mm/hr 0.00 in0.0 mm
02:40 AM 37.8°F3.2°C 35.1°F1.7°C 90% 1.1 mph S1.8 kmh S 1.6 mph2.6 kmh 30.10 in1019.3 mb 0.00 in0.0 mm 0.00 in/hr0.0 mm/hr 0.00 in0.0 mm
02:35 AM 37.6°F3.1°C 34.9°F1.6°C 90% 1.5 mph S2.4 kmh S 2.2 mph3.5 kmh 30.10 in1019.3 mb 0.00 in0.0 mm 0.00 in/hr0.0 mm/hr 0.00 in0.0 mm
02:30 AM 37.6°F3.1°C 34.9°F1.6°C 90% 1.2 mph S1.9 kmh S 2.2 mph3.5 kmh 30.10 in1019.3 mb 0.00 in0.0 mm 0.00 in/hr0.0 mm/hr 0.00 in0.0 mm
02:25 AM 37.4°F3.0°C 34.7°F1.5°C 90% 1.2 mph NW1.9 kmh NW 2.2 mph3.5 kmh 30.11 in1019.6 mb 0.00 in0.0 mm 0.00 in/hr0.0 mm/hr 0.00 in0.0 mm
02:20 AM 37.4°F3.0°C 34.7°F1.5°C 90% 1.2 mph NW1.9 kmh NW 2.2 mph3.5 kmh 30.11 in1019.6 mb 0.00 in0.0 mm 0.00 in/hr0.0 mm/hr 0.00 in0.0 mm
02:15 AM 37.4°F3.0°C 34.7°F1.5°C 90% 0.6 mph NW1.0 kmh NW 1.6 mph2.6 kmh 30.11 in1019.6 mb 0.00 in0.0 mm 0.00 in/hr0.0 mm/hr 0.00 in0.0 mm
02:10 AM 37.2°F2.9°C 34.6°F1.4°C 90% 1.2 mph SE1.9 kmh SE 2.2 mph3.5 kmh 30.11 in1019.6 mb 0.00 in0.0 mm 0.00 in/hr0.0 mm/hr 0.00 in0.0 mm
02:05 AM 37.4°F3.0°C 34.5°F1.4°C 89% 1.6 mph SE2.6 kmh SE 2.2 mph3.5 kmh 30.10 in1019.3 mb 0.00 in0.0 mm 0.00 in/hr0.0 mm/hr 0.00 in0.0 mm
02:00 AM 37.4°F3.0°C 34.5°F1.4°C 89% 0.8 mph S1.3 kmh S 2.2 mph3.5 kmh 30.10 in1019.3 mb 0.00 in0.0 mm 0.00 in/hr0.0 mm/hr 0.00 in0.0 mm
01:55 AM 37.6°F3.1°C 34.6°F1.4°C 89% 0.3 mph WSW0.5 kmh WSW 1.6 mph2.6 kmh 30.10 in1019.3 mb 0.00 in0.0 mm 0.00 in/hr0.0 mm/hr 0.00 in0.0 mm
01:50 AM 37.8°F3.2°C 34.8°F1.6°C 89% 0.9 mph W1.4 kmh W 1.6 mph2.6 kmh 30.11 in1019.6 mb 0.00 in0.0 mm 0.00 in/hr0.0 mm/hr 0.00 in0.0 mm
01:45 AM 37.8°F3.2°C 34.8°F1.6°C 89% 0.8 mph W1.3 kmh W 1.6 mph2.6 kmh 30.10 in1019.3 mb 0.00 in0.0 mm 0.00 in/hr0.0 mm/hr 0.00 in0.0 mm
01:40 AM 37.8°F3.2°C 34.8°F1.6°C 89% 0.6 mph WNW1.0 kmh WNW 1.6 mph2.6 kmh 30.10 in1019.3 mb 0.00 in0.0 mm 0.00 in/hr0.0 mm/hr 0.00 in0.0 mm
01:35 AM 37.6°F3.1°C 34.6°F1.4°C 89% 0.6 mph NW1.0 kmh NW 1.6 mph2.6 kmh 30.10 in1019.3 mb 0.00 in0.0 mm 0.00 in/hr0.0 mm/hr 0.00 in0.0 mm
01:30 AM 37.6°F3.1°C 34.6°F1.4°C 89% 0.2 mph NW0.3 kmh NW 1.6 mph2.6 kmh 30.10 in1019.3 mb 0.00 in0.0 mm 0.00 in/hr0.0 mm/hr 0.00 in0.0 mm
01:25 AM 37.9°F3.3°C 35.0°F1.7°C 89% Calm Calm -- 30.10 in1019.3 mb 0.00 in0.0 mm 0.00 in/hr0.0 mm/hr 0.00 in0.0 mm
01:20 AM 38.1°F3.4°C 35.2°F1.8°C 89% 0.3 mph W0.5 kmh W 0.7 mph1.1 kmh 30.10 in1019.3 mb 0.00 in0.0 mm 0.00 in/hr0.0 mm/hr 0.00 in0.0 mm
01:15 AM 38.3°F3.5°C 35.4°F1.9°C 89% 0.7 mph SW1.1 kmh SW 1.6 mph2.6 kmh 30.10 in1019.3 mb 0.00 in0.0 mm 0.00 in/hr0.0 mm/hr 0.00 in0.0 mm
01:10 AM 38.3°F3.5°C 35.4°F1.9°C 89% 0.8 mph S1.3 kmh S 1.6 mph2.6 kmh 30.10 in1019.3 mb 0.00 in0.0 mm 0.00 in/hr0.0 mm/hr 0.00 in0.0 mm
01:05 AM 38.5°F3.6°C 35.5°F1.9°C 89% 0.9 mph S1.4 kmh S 1.6 mph2.6 kmh 30.11 in1019.6 mb 0.00 in0.0 mm 0.00 in/hr0.0 mm/hr 0.00 in0.0 mm
01:00 AM 38.5°F3.6°C 35.5°F1.9°C 89% 0.8 mph S1.3 kmh S 1.6 mph2.6 kmh 30.11 in1019.6 mb 0.00 in0.0 mm 0.00 in/hr0.0 mm/hr 0.00 in0.0 mm
12:55 AM 38.7°F3.7°C 35.7°F2.1°C 89% 0.2 mph SW0.3 kmh SW 1.6 mph2.6 kmh 30.11 in1019.6 mb 0.00 in0.0 mm 0.00 in/hr0.0 mm/hr 0.00 in0.0 mm
12:50 AM 38.7°F3.7°C 35.7°F2.1°C 89% 0.1 mph NE0.2 kmh NE 1.6 mph2.6 kmh 30.11 in1019.6 mb 0.00 in0.0 mm 0.00 in/hr0.0 mm/hr 0.00 in0.0 mm
12:45 AM 38.8°F3.8°C 35.9°F2.2°C 89% 0.6 mph NE1.0 kmh NE 1.6 mph2.6 kmh 30.11 in1019.6 mb 0.00 in0.0 mm 0.00 in/hr0.0 mm/hr 0.00 in0.0 mm
12:40 AM 39.0°F3.9°C 36.1°F2.3°C 89% 1.1 mph SE1.8 kmh SE 2.2 mph3.5 kmh 30.12 in1020.0 mb 0.00 in0.0 mm 0.00 in/hr0.0 mm/hr 0.00 in0.0 mm
12:35 AM 39.2°F4.0°C 36.2°F2.3°C 89% 0.7 mph S1.1 kmh S 2.2 mph3.5 kmh 30.12 in1020.0 mb 0.00 in0.0 mm 0.00 in/hr0.0 mm/hr 0.00 in0.0 mm
12:30 AM 39.2°F4.0°C 36.2°F2.3°C 89% 0.3 mph SW0.5 kmh SW 0.7 mph1.1 kmh 30.12 in1020.0 mb 0.00 in0.0 mm 0.00 in/hr0.0 mm/hr 0.00 in0.0 mm
12:25 AM 39.4°F4.1°C 36.4°F2.4°C 89% 0.5 mph SW0.8 kmh SW 0.7 mph1.1 kmh 30.12 in1020.0 mb 0.00 in0.0 mm 0.00 in/hr0.0 mm/hr 0.00 in0.0 mm
12:20 AM 39.6°F4.2°C 36.3°F2.4°C 88% 0.3 mph SSW0.5 kmh SSW 0.7 mph1.1 kmh 30.13 in1020.3 mb 0.00 in0.0 mm 0.00 in/hr0.0 mm/hr 0.00 in0.0 mm
12:15 AM 39.7°F4.3°C 36.5°F2.5°C 88% 0.2 mph S0.3 kmh S 0.7 mph1.1 kmh 30.13 in1020.3 mb 0.00 in0.0 mm 0.00 in/hr0.0 mm/hr 0.00 in0.0 mm
12:10 AM 39.7°F4.3°C 36.5°F2.5°C 88% 0.2 mph S0.3 kmh S 0.7 mph1.1 kmh 30.13 in1020.3 mb 0.00 in0.0 mm 0.00 in/hr0.0 mm/hr 0.00 in0.0 mm
12:05 AM 39.9°F4.4°C 36.7°F2.6°C 88% 0.2 mph S0.3 kmh S 0.7 mph1.1 kmh 30.13 in1020.3 mb 0.00 in0.0 mm 0.00 in/hr0.0 mm/hr 0.00 in0.0 mm
12:00 AM 40.1°F4.5°C 36.8°F2.7°C 88% 0.4 mph S0.6 kmh S 1.6 mph2.6 kmh 30.13 in1020.3 mb 0.00 in0.0 mm 0.00 in/hr0.0 mm/hr 0.00 in0.0 mm